Time;durP1;ratioP1;P1;durP2;ratioP2;P2;SDS_P1;SDS_P2;PMS_P1;PMS_P2;Temp;Humidity;BMP_temperature;BMP_pressure;BME280_temperature;BME280_humidity;BME280_pressure;Samples;Min_cycle;Max_cycle;Signal;HPM_P1;HPM_P2
2022/05/08 00:01:52;;;;;;;46.00;30.45;;;13.50;99.90;;;;;;5058522;28;20600;-55
2022/05/08 00:04:18;;;;;;;47.83;31.90;;;13.50;99.90;;;;;;5070185;28;20028;-55
2022/05/08 00:06:43;;;;;;;47.88;29.92;;;13.50;99.90;;;;;;5069317;28;20032;-54
2022/05/08 00:09:09;;;;;;;45.90;29.98;;;13.40;99.90;;;;;;5071213;28;20470;-54
2022/05/08 00:11:35;;;;;;;47.45;30.27;;;13.30;99.90;;;;;;5064358;28;20032;-54
2022/05/08 00:14:01;;;;;;;43.38;29.27;;;13.20;99.90;;;;;;5068189;28;20040;-54
2022/05/08 00:16:26;;;;;;;46.15;28.50;;;13.20;99.90;;;;;;5052804;28;20393;-54
2022/05/08 00:18:52;;;;;;;41.42;28.02;;;13.20;99.90;;;;;;5053941;28;20021;-54
2022/05/08 00:21:17;;;;;;;43.55;27.77;;;13.20;99.90;;;;;;5064412;28;20024;-54
2022/05/08 00:23:43;;;;;;;42.00;28.23;;;13.20;99.90;;;;;;5068743;28;20024;-56
2022/05/08 00:26:09;;;;;;;42.17;26.98;;;13.20;99.90;;;;;;5060603;28;20108;-56
2022/05/08 00:28:36;;;;;;;47.80;25.58;;;13.10;99.90;;;;;;5049967;28;20039;-55
2022/05/08 00:31:02;;;;;;;40.60;25.45;;;13.20;99.90;;;;;;5065973;28;20059;-55
2022/05/08 00:33:28;;;;;;;40.53;24.88;;;13.10;99.90;;;;;;5070702;28;20124;-55
2022/05/08 00:35:54;;;;;;;35.03;23.05;;;13.00;99.90;;;;;;5066639;28;20475;-57
2022/05/08 00:38:19;;;;;;;36.35;22.83;;;13.10;99.90;;;;;;5070810;28;20024;-55
2022/05/08 00:40:45;;;;;;;31.90;21.20;;;13.00;99.90;;;;;;5059303;28;20108;-55
2022/05/08 00:43:33;;;;;;;30.23;20.17;;;13.00;99.90;;;;;;5057661;28;20104;-56
2022/05/08 00:46:04;;;;;;;26.17;18.77;;;13.00;99.90;;;;;;5069167;28;20033;-55
2022/05/08 00:48:31;;;;;;;26.63;17.92;;;13.00;99.90;;;;;;5075036;28;20312;-54
2022/05/08 00:50:58;;;;;;;28.30;18.23;;;13.00;99.90;;;;;;5064528;28;20375;-54
2022/05/08 00:53:26;;;;;;;23.90;16.58;;;13.00;99.90;;;;;;5056927;28;20061;-53
2022/05/08 00:55:54;;;;;;;24.23;16.30;;;13.10;99.90;;;;;;5083073;28;20520;-54
2022/05/08 00:58:20;;;;;;;23.65;15.32;;;13.10;99.90;;;;;;5073401;28;20052;-54
2022/05/08 01:00:46;;;;;;;21.70;14.88;;;13.10;99.90;;;;;;5071598;28;20493;-54
2022/05/08 01:03:12;;;;;;;24.48;15.80;;;13.10;99.90;;;;;;5060308;28;20054;-53
2022/05/08 01:05:41;;;;;;;21.55;14.68;;;13.10;99.90;;;;;;5054667;28;20096;-56
2022/05/08 01:08:11;;;;;;;21.77;14.93;;;13.10;99.90;;;;;;5076216;28;20028;-55
2022/05/08 01:10:37;;;;;;;18.67;13.23;;;13.10;99.90;;;;;;5057957;28;20530;-55
2022/05/08 01:13:07;;;;;;;21.70;13.68;;;13.10;99.90;;;;;;5073590;28;20028;-55
2022/05/08 01:15:41;;;;;;;19.70;13.07;;;13.10;99.90;;;;;;5055222;28;20025;-54
2022/05/08 01:18:08;;;;;;;17.80;13.13;;;13.10;99.90;;;;;;5051041;28;20032;-54
2022/05/08 01:20:34;;;;;;;19.70;12.40;;;13.10;99.90;;;;;;5060829;28;20834;-55
2022/05/08 01:23:02;;;;;;;18.05;12.77;;;13.20;99.90;;;;;;5069848;28;20145;-55
2022/05/08 01:25:27;;;;;;;22.65;12.43;;;13.20;99.90;;;;;;5060875;28;20111;-55
2022/05/08 01:27:53;;;;;;;17.10;13.00;;;13.30;99.90;;;;;;5052003;28;20059;-55
2022/05/08 01:30:19;;;;;;;17.23;12.48;;;13.30;99.90;;;;;;5056940;28;20039;-54
2022/05/08 01:32:44;;;;;;;20.58;12.77;;;13.30;99.90;;;;;;5072731;28;20452;-54
2022/05/08 01:35:10;;;;;;;20.05;11.98;;;13.30;99.90;;;;;;5066526;28;20044;-54
2022/05/08 01:37:36;;;;;;;19.30;12.07;;;13.20;99.90;;;;;;5070415;28;20024;-53
2022/05/08 01:40:02;;;;;;;19.17;11.80;;;13.20;99.90;;;;;;5070349;28;20082;-54
2022/05/08 01:42:28;;;;;;;18.30;11.30;;;13.20;99.90;;;;;;5060200;28;20089;-55
2022/05/08 01:44:53;;;;;;;16.60;11.27;;;13.20;99.90;;;;;;5071564;28;20397;-55
2022/05/08 01:50:04;;;;;;;18.23;11.82;;;13.20;99.90;;;;;;5053179;28;20032;-54
2022/05/08 01:52:30;;;;;;;17.27;11.80;;;13.20;99.90;;;;;;5052962;28;20021;-56
2022/05/08 01:54:55;;;;;;;16.52;11.35;;;13.20;99.90;;;;;;5067566;28;20100;-55
2022/05/08 01:57:21;;;;;;;19.00;12.50;;;13.20;99.90;;;;;;5054987;28;20045;-55
2022/05/08 01:59:47;;;;;;;14.85;11.15;;;13.10;99.90;;;;;;5052186;28;20021;-54
2022/05/08 02:02:13;;;;;;;16.88;11.63;;;13.10;99.90;;;;;;5072300;28;20033;-54
2022/05/08 02:04:40;;;;;;;19.88;12.30;;;12.90;99.90;;;;;;5060026;28;20036;-54
2022/05/08 02:07:05;;;;;;;16.60;11.75;;;12.90;99.90;;;;;;5061145;28;20074;-54
2022/05/08 02:09:31;;;;;;;17.33;11.40;;;12.90;99.90;;;;;;5060155;28;20025;-54
2022/05/08 02:11:57;;;;;;;17.38;11.23;;;12.90;99.90;;;;;;5061554;28;20179;-54
2022/05/08 02:14:25;;;;;;;16.85;11.77;;;12.80;99.90;;;;;;5072766;28;20025;-55
2022/05/08 02:16:51;;;;;;;16.90;11.10;;;12.90;99.90;;;;;;5071467;28;20176;-54
2022/05/08 02:19:18;;;;;;;20.13;12.13;;;12.90;99.90;;;;;;5062105;28;20021;-54
2022/05/08 02:21:44;;;;;;;16.27;11.27;;;12.90;99.90;;;;;;5074596;28;20508;-54
2022/05/08 02:24:09;;;;;;;16.48;11.05;;;12.90;99.90;;;;;;5064813;28;20029;-55
2022/05/08 02:26:35;;;;;;;16.73;11.40;;;12.90;99.90;;;;;;5073075;28;20017;-55
2022/05/08 02:29:00;;;;;;;17.55;11.30;;;12.90;99.90;;;;;;5071906;28;20371;-54
2022/05/08 02:31:26;;;;;;;17.80;11.07;;;12.90;99.90;;;;;;5071783;28;20063;-54
2022/05/08 02:33:51;;;;;;;17.45;10.75;;;12.90;99.90;;;;;;5071076;28;20371;-54
2022/05/08 02:36:19;;;;;;;16.13;10.90;;;12.90;99.90;;;;;;5071729;28;20077;-54
2022/05/08 02:38:44;;;;;;;17.05;11.10;;;12.80;99.90;;;;;;5070232;28;20035;-54
2022/05/08 02:41:10;;;;;;;17.88;12.02;;;12.80;99.90;;;;;;5071506;28;20401;-54
2022/05/08 02:43:35;;;;;;;19.67;11.55;;;12.80;99.90;;;;;;5069416;28;20079;-55
2022/05/08 02:46:02;;;;;;;18.85;10.90;;;12.80;99.90;;;;;;5068323;28;20100;-54
2022/05/08 02:48:27;;;;;;;18.38;10.82;;;12.70;99.90;;;;;;5065172;28;20294;-55
2022/05/08 02:50:53;;;;;;;16.70;11.57;;;12.70;99.90;;;;;;5067085;28;20032;-54
2022/05/08 02:53:20;;;;;;;17.55;11.70;;;12.70;99.90;;;;;;5052772;28;20025;-55
2022/05/08 02:58:33;;;;;;;16.98;10.85;;;12.60;99.90;;;;;;5073609;28;20032;-55
2022/05/08 03:01:00;;;;;;;18.27;11.88;;;12.50;99.90;;;;;;5072444;28;20043;-55
2022/05/08 03:03:26;;;;;;;18.02;11.50;;;12.50;99.90;;;;;;5073713;28;20028;-57
2022/05/08 03:05:52;;;;;;;18.30;11.90;;;12.40;99.90;;;;;;5071329;28;20066;-54
2022/05/08 03:08:18;;;;;;;16.60;12.13;;;12.40;99.90;;;;;;5069057;28;20028;-54
2022/05/08 03:13:35;;;;;;;20.08;12.45;;;12.40;99.90;;;;;;5070974;28;20054;-53
2022/05/08 03:16:01;;;;;;;22.92;12.98;;;12.40;99.90;;;;;;5067790;28;20037;-54
2022/05/08 03:18:26;;;;;;;20.25;12.40;;;12.40;99.90;;;;;;5072908;28;20024;-54
2022/05/08 03:20:52;;;;;;;18.50;12.70;;;12.30;99.90;;;;;;5073458;28;20048;-54
2022/05/08 03:23:18;;;;;;;19.00;12.38;;;12.40;99.90;;;;;;5071804;28;20115;-54
2022/05/08 03:25:43;;;;;;;18.52;12.18;;;12.40;99.90;;;;;;5072191;28;20036;-54
2022/05/08 03:28:09;;;;;;;19.02;12.93;;;12.30;99.90;;;;;;5073665;28;20500;-53
2022/05/08 03:30:35;;;;;;;17.75;13.23;;;12.30;99.90;;;;;;5072986;28;20036;-53
2022/05/08 03:33:01;;;;;;;18.23;13.73;;;12.20;99.90;;;;;;5072301;28;20028;-54
2022/05/08 03:35:26;;;;;;;25.55;13.65;;;12.20;99.90;;;;;;5072173;28;20040;-54
2022/05/08 03:37:52;;;;;;;18.25;13.30;;;12.20;99.90;;;;;;5072705;28;20024;-54
2022/05/08 03:40:18;;;;;;;19.58;12.68;;;12.20;99.90;;;;;;5072961;28;20462;-54
2022/05/08 03:42:43;;;;;;;20.50;13.85;;;12.20;99.90;;;;;;5073238;28;20110;-54
2022/05/08 03:45:10;;;;;;;19.08;12.88;;;12.20;99.90;;;;;;5071172;28;20112;-53
2022/05/08 03:47:35;;;;;;;21.95;13.43;;;12.20;99.90;;;;;;5072893;28;20089;-54
2022/05/08 03:50:02;;;;;;;15.75;12.60;;;12.30;99.90;;;;;;5071956;28;20032;-54
2022/05/08 03:52:28;;;;;;;15.98;11.98;;;12.40;99.90;;;;;;5071522;28;20103;-54
2022/05/08 03:54:53;;;;;;;19.65;12.40;;;12.50;99.90;;;;;;5070984;28;20115;-55
2022/05/08 03:57:19;;;;;;;17.65;12.60;;;12.50;99.90;;;;;;5070893;28;20033;-54
2022/05/08 03:59:45;;;;;;;18.30;11.73;;;12.60;99.90;;;;;;5071978;28;20025;-55
2022/05/08 04:02:10;;;;;;;17.83;11.60;;;12.70;99.90;;;;;;5071857;28;20020;-56
2022/05/08 04:04:36;;;;;;;18.63;10.85;;;12.70;99.90;;;;;;5072290;28;20051;-55
2022/05/08 04:07:02;;;;;;;16.23;10.82;;;12.70;99.90;;;;;;5072584;28;20083;-54
2022/05/08 04:09:28;;;;;;;17.95;11.00;;;12.70;99.90;;;;;;5071012;28;20366;-54
2022/05/08 04:11:53;;;;;;;15.88;10.52;;;12.80;99.90;;;;;;5069329;28;20020;-55
2022/05/08 04:14:19;;;;;;;14.85;10.27;;;12.90;99.90;;;;;;5073368;28;20025;-55
2022/05/08 04:16:47;;;;;;;17.38;10.35;;;12.90;99.90;;;;;;5073563;28;20025;-55
2022/05/08 04:19:12;;;;;;;16.65;11.27;;;12.90;99.90;;;;;;5074144;28;20036;-55
2022/05/08 04:21:38;;;;;;;16.02;10.13;;;13.00;99.90;;;;;;5074720;28;20304;-57
2022/05/08 04:24:19;;;;;;;15.35;10.70;;;13.10;99.90;;;;;;5074516;28;20156;-56
2022/05/08 04:26:47;;;;;;;17.15;10.25;;;13.10;99.90;;;;;;5074136;28;20032;-55
2022/05/08 04:29:13;;;;;;;12.55;9.52;;;13.00;99.90;;;;;;5074059;28;20613;-54
2022/05/08 04:31:39;;;;;;;14.02;8.95;;;13.00;99.90;;;;;;5074195;28;20028;-54
2022/05/08 04:34:04;;;;;;;14.75;9.73;;;13.10;99.90;;;;;;5073292;28;20040;-54
2022/05/08 04:36:30;;;;;;;15.48;9.93;;;13.10;99.90;;;;;;5073202;28;20028;-55
2022/05/08 04:38:56;;;;;;;14.30;8.52;;;13.10;99.90;;;;;;5073642;28;20406;-54
2022/05/08 04:41:22;;;;;;;14.27;9.05;;;13.10;99.90;;;;;;5074739;28;20020;-54
2022/05/08 04:43:48;;;;;;;14.40;8.70;;;13.10;99.90;;;;;;5073848;28;20017;-54
2022/05/08 04:46:13;;;;;;;11.57;8.55;;;13.00;99.90;;;;;;5072691;28;20032;-54
2022/05/08 04:48:42;;;;;;;14.45;8.82;;;13.00;99.90;;;;;;5073881;28;20028;-54
2022/05/08 04:51:07;;;;;;;14.40;9.32;;;12.90;99.90;;;;;;5075560;28;20111;-55
2022/05/08 04:53:33;;;;;;;15.65;9.00;;;12.80;99.90;;;;;;5075325;28;20104;-54
2022/05/08 04:55:59;;;;;;;14.65;9.10;;;12.70;99.90;;;;;;5075124;28;20435;-54
2022/05/08 04:58:29;;;;;;;15.52;9.70;;;12.70;99.90;;;;;;5075353;28;20031;-54
2022/05/08 05:00:57;;;;;;;17.45;10.15;;;12.70;99.90;;;;;;5074310;28;20538;-55
2022/05/08 05:03:24;;;;;;;14.35;9.93;;;12.70;99.90;;;;;;5074542;28;20614;-54
2022/05/08 05:05:50;;;;;;;17.00;9.55;;;12.80;99.90;;;;;;5074937;28;20424;-53
2022/05/08 05:08:15;;;;;;;17.48;9.95;;;12.80;99.90;;;;;;5074164;28;20024;-54
2022/05/08 05:10:41;;;;;;;15.98;10.10;;;12.70;99.90;;;;;;5074277;28;20035;-53
2022/05/08 05:13:07;;;;;;;23.60;11.43;;;12.70;99.90;;;;;;5074410;28;20028;-54
2022/05/08 05:15:32;;;;;;;21.65;11.45;;;12.70;99.90;;;;;;5072471;28;20490;-53
2022/05/08 05:18:01;;;;;;;19.80;12.02;;;12.70;99.90;;;;;;5072516;28;20063;-53
2022/05/08 05:20:27;;;;;;;18.77;11.65;;;12.70;99.90;;;;;;5072431;28;20036;-54
2022/05/08 05:22:53;;;;;;;18.25;10.82;;;12.80;99.90;;;;;;5072356;28;20027;-53
2022/05/08 05:25:19;;;;;;;17.45;11.13;;;12.80;99.90;;;;;;5071622;28;20470;-53
2022/05/08 05:27:45;;;;;;;15.10;10.70;;;12.80;99.90;;;;;;5072317;28;20020;-53
2022/05/08 05:30:11;;;;;;;14.77;9.65;;;12.80;99.90;;;;;;5072744;28;20375;-53
2022/05/08 05:32:39;;;;;;;15.60;10.43;;;12.80;99.90;;;;;;5073193;28;20040;-53
2022/05/08 05:35:05;;;;;;;15.23;10.02;;;12.90;99.90;;;;;;5072220;28;20405;-53
2022/05/08 05:37:31;;;;;;;19.38;10.20;;;12.90;99.90;;;;;;5071113;28;20120;-53
2022/05/08 05:39:57;;;;;;;15.30;10.18;;;13.00;99.90;;;;;;5072595;28;20108;-53
2022/05/08 05:42:23;;;;;;;17.15;10.40;;;13.00;99.90;;;;;;5071076;28;20024;-53
2022/05/08 05:44:49;;;;;;;13.88;9.32;;;13.10;99.90;;;;;;5072779;28;20393;-53
2022/05/08 05:49:59;;;;;;;16.00;10.65;;;13.10;99.90;;;;;;5071988;28;20032;-54
2022/05/08 05:52:25;;;;;;;15.90;11.27;;;13.10;99.90;;;;;;5072361;28;20025;-53
2022/05/08 05:54:51;;;;;;;16.67;10.68;;;13.20;99.90;;;;;;5071759;28;20047;-54
2022/05/08 05:57:16;;;;;;;22.27;10.98;;;13.30;99.90;;;;;;5071442;28;20029;-54
2022/05/08 05:59:42;;;;;;;17.45;10.48;;;13.30;99.90;;;;;;5072034;28;20026;-53
2022/05/08 06:02:07;;;;;;;16.88;11.38;;;13.30;99.90;;;;;;5073089;28;20024;-53
2022/05/08 06:04:33;;;;;;;16.25;11.15;;;13.20;99.90;;;;;;5072993;28;20305;-53
2022/05/08 06:06:59;;;;;;;16.98;11.13;;;13.30;99.90;;;;;;5071922;28;20059;-53
2022/05/08 06:09:25;;;;;;;13.93;11.00;;;13.50;99.90;;;;;;5071518;28;20036;-53
2022/05/08 06:11:52;;;;;;;17.45;10.82;;;13.70;99.90;;;;;;5071295;28;20110;-53
2022/05/08 06:14:18;;;;;;;14.07;10.50;;;13.80;99.90;;;;;;5071401;28;20055;-54
2022/05/08 06:16:44;;;;;;;17.05;11.48;;;13.70;99.90;;;;;;5070147;28;20025;-54
2022/05/08 06:19:10;;;;;;;15.55;10.18;;;13.80;99.90;;;;;;5071399;28;20024;-54
2022/05/08 06:21:35;;;;;;;12.77;9.73;;;13.90;99.90;;;;;;5071550;28;20462;-54
2022/05/08 06:24:01;;;;;;;20.73;10.70;;;14.10;99.90;;;;;;5071368;28;20027;-54
2022/05/08 06:26:27;;;;;;;17.33;10.43;;;14.00;99.90;;;;;;5070876;28;20029;-54
2022/05/08 06:28:52;;;;;;;22.25;10.73;;;14.10;99.90;;;;;;5071048;28;20024;-54
2022/05/08 06:31:18;;;;;;;16.15;10.35;;;14.20;99.90;;;;;;5071124;28;20020;-54
2022/05/08 06:33:44;;;;;;;14.95;9.68;;;14.20;99.90;;;;;;5070669;28;20101;-54
2022/05/08 06:36:11;;;;;;;14.32;10.32;;;14.30;99.90;;;;;;5069589;28;20060;-54
2022/05/08 06:38:37;;;;;;;17.75;10.52;;;14.30;99.90;;;;;;5071020;28;20030;-54
2022/05/08 06:41:02;;;;;;;15.35;10.10;;;14.40;99.90;;;;;;5071131;28;20016;-54
2022/05/08 06:43:28;;;;;;;14.85;9.82;;;14.50;99.90;;;;;;5070550;28;20074;-54
2022/05/08 06:45:53;;;;;;;16.38;10.18;;;14.50;99.90;;;;;;5070529;28;20029;-54
2022/05/08 06:48:19;;;;;;;16.27;9.98;;;14.40;99.90;;;;;;5070580;28;20033;-54
2022/05/08 06:50:45;;;;;;;16.85;10.80;;;14.50;99.90;;;;;;5070455;28;20137;-54
2022/05/08 06:53:10;;;;;;;16.08;10.02;;;14.60;99.90;;;;;;5070686;28;20393;-54
2022/05/08 06:55:36;;;;;;;15.55;9.65;;;14.60;99.90;;;;;;5070181;28;20024;-54
2022/05/08 06:58:03;;;;;;;17.00;10.10;;;14.70;99.90;;;;;;5070523;28;20030;-54
2022/05/08 07:03:13;;;;;;;16.05;9.43;;;15.10;99.90;;;;;;5070533;28;20090;-54
2022/05/08 07:05:45;;;;;;;18.17;9.63;;;15.30;99.90;;;;;;5068993;28;20033;-54
2022/05/08 07:08:11;;;;;;;15.25;9.35;;;15.60;99.90;;;;;;5070362;28;20036;-54
2022/05/08 07:10:36;;;;;;;15.13;8.93;;;15.60;99.90;;;;;;5070300;28;20037;-53
2022/05/08 07:13:02;;;;;;;17.40;8.55;;;15.50;99.90;;;;;;5068980;28;20024;-53
2022/05/08 07:15:28;;;;;;;14.10;8.95;;;15.40;99.90;;;;;;5069954;28;20532;-53
2022/05/08 07:17:54;;;;;;;15.07;8.95;;;15.30;99.90;;;;;;5069973;28;20012;-53
2022/05/08 07:20:19;;;;;;;14.40;8.48;;;15.60;99.90;;;;;;5070116;28;20085;-53
2022/05/08 07:22:48;;;;;;;13.63;8.02;;;15.80;99.90;;;;;;5070186;28;20032;-54
2022/05/08 07:25:13;;;;;;;19.23;8.45;;;16.30;99.90;;;;;;5068807;28;20112;-54
2022/05/08 07:27:40;;;;;;;15.77;7.95;;;16.60;99.90;;;;;;5070389;28;20146;-54
2022/05/08 07:30:09;;;;;;;13.93;7.75;;;17.00;99.90;;;;;;5070025;28;20040;-54
2022/05/08 07:32:35;;;;;;;11.88;7.43;;;17.80;99.90;;;;;;5070547;28;20031;-54
2022/05/08 07:37:46;;;;;;;11.55;7.38;;;19.10;99.90;;;;;;5070988;28;20109;-56
2022/05/08 07:40:12;;;;;;;15.07;7.25;;;20.00;99.90;;;;;;5070107;28;20482;-56
2022/05/08 07:42:38;;;;;;;9.40;6.53;;;20.10;99.90;;;;;;5070684;28;20478;-55
2022/05/08 07:45:05;;;;;;;10.10;6.38;;;19.90;99.90;;;;;;5070126;28;20024;-56
2022/05/08 07:47:31;;;;;;;8.90;6.40;;;20.20;99.40;;;;;;5069334;28;20032;-57
2022/05/08 07:49:57;;;;;;;21.50;6.75;;;21.10;97.90;;;;;;5070174;28;20513;-57
2022/05/08 07:52:23;;;;;;;12.13;6.53;;;21.60;95.60;;;;;;5069837;28;20078;-57
2022/05/08 07:54:49;;;;;;;13.95;6.50;;;21.60;95.50;;;;;;5069843;28;20039;-56
2022/05/08 07:57:15;;;;;;;16.70;7.15;;;21.50;94.50;;;;;;5070061;28;20512;-56
2022/05/08 07:59:41;;;;;;;14.35;5.68;;;21.40;94.50;;;;;;5070082;28;20020;-56
2022/05/08 08:02:08;;;;;;;10.07;6.10;;;21.30;94.10;;;;;;5070501;28;20298;-56
2022/05/08 08:04:34;;;;;;;16.95;6.13;;;21.50;93.60;;;;;;5069789;28;20379;-58
2022/05/08 08:07:01;;;;;;;9.18;5.75;;;21.90;93.00;;;;;;5070491;28;20040;-57
2022/05/08 08:09:26;;;;;;;12.48;5.82;;;22.50;91.30;;;;;;5068534;28;20169;-57
2022/05/08 08:11:53;;;;;;;9.57;5.88;;;22.90;90.80;;;;;;5070146;28;20531;-56
2022/05/08 08:14:19;;;;;;;10.48;5.40;;;23.50;89.50;;;;;;5068641;28;20029;-56
2022/05/08 08:16:46;;;;;;;12.43;5.65;;;23.60;87.10;;;;;;5070168;28;20098;-57
2022/05/08 08:19:11;;;;;;;10.38;5.82;;;23.80;86.80;;;;;;5070165;28;20050;-57
2022/05/08 08:21:37;;;;;;;11.80;5.63;;;23.70;85.90;;;;;;5068650;28;20063;-57
2022/05/08 08:24:03;;;;;;;12.30;5.15;;;23.80;85.40;;;;;;5069943;28;20392;-57
2022/05/08 08:26:29;;;;;;;9.38;4.72;;;23.70;83.40;;;;;;5070176;28;20032;-57
2022/05/08 08:28:54;;;;;;;8.80;4.78;;;23.80;81.80;;;;;;5070151;28;20115;-57
2022/05/08 08:31:20;;;;;;;15.00;4.78;;;23.70;82.50;;;;;;5070339;28;20116;-58
2022/05/08 08:33:46;;;;;;;12.80;5.05;;;23.90;81.20;;;;;;5069873;28;20025;-58
2022/05/08 08:36:14;;;;;;;10.18;4.30;;;24.30;80.20;;;;;;5069671;28;20442;-58
2022/05/08 08:38:40;;;;;;;13.48;4.82;;;23.70;81.20;;;;;;5070046;28;20328;-58
2022/05/08 08:41:12;;;;;;;10.13;5.00;;;24.10;80.60;;;;;;5070386;28;20017;-56
2022/05/08 08:49:22;;;;;;;12.68;4.57;;;24.30;76.60;;;;;;5069710;28;20054;-57
2022/05/08 08:51:49;;;;;;;9.73;3.97;;;24.10;77.30;;;;;;5070047;28;20029;-57
2022/05/08 08:54:19;;;;;;;7.60;3.50;;;23.70;76.90;;;;;;5069936;28;20033;-57
2022/05/08 08:56:45;;;;;;;11.50;3.80;;;23.90;75.80;;;;;;5069484;28;20031;-57
2022/05/08 08:59:11;;;;;;;9.73;3.67;;;24.50;75.10;;;;;;5069964;28;20017;-58
2022/05/08 09:01:44;;;;;;;9.85;3.40;;;24.80;73.50;;;;;;5073738;28;20035;-57
2022/05/08 09:04:10;;;;;;;12.38;3.58;;;24.90;71.30;;;;;;5073100;28;20024;-57
2022/05/08 09:06:46;;;;;;;6.47;4.05;;;24.50;73.00;;;;;;5073198;28;20044;-57
2022/05/08 09:09:31;;;;;;;9.90;3.70;;;23.80;74.50;;;;;;5072861;28;20063;-57
2022/05/08 09:11:57;;;;;;;9.15;3.78;;;24.10;72.10;;;;;;5073015;28;20025;-58
2022/05/08 09:14:34;;;;;;;7.57;3.05;;;24.00;75.10;;;;;;5072836;28;20066;-57
2022/05/08 09:17:02;;;;;;;8.90;3.03;;;24.80;72.40;;;;;;5072993;28;20024;-57
2022/05/08 09:19:37;;;;;;;12.27;2.70;;;25.30;69.40;;;;;;5072806;28;20032;-58
2022/05/08 09:22:04;;;;;;;6.78;2.70;;;25.40;68.30;;;;;;5073706;28;20343;-57
2022/05/08 09:24:30;;;;;;;6.45;2.83;;;24.50;70.70;;;;;;5071549;28;20032;-57
2022/05/08 09:27:13;;;;;;;8.60;3.00;;;24.70;69.70;;;;;;5073377;28;20028;-57
2022/05/08 09:29:39;;;;;;;7.57;2.58;;;25.20;67.60;;;;;;5072861;28;20111;-57
2022/05/08 09:32:05;;;;;;;7.03;2.53;;;24.40;70.90;;;;;;5072785;28;20390;-57
2022/05/08 09:34:58;;;;;;;8.15;3.13;;;24.40;69.30;;;;;;5072639;28;20083;-57
2022/05/08 09:37:25;;;;;;;8.52;2.88;;;24.90;67.90;;;;;;5071255;28;20509;-57
2022/05/08 09:39:51;;;;;;;8.85;3.70;;;25.30;68.60;;;;;;5072647;28;20134;-57
2022/05/08 09:42:36;;;;;;;8.35;3.17;;;24.90;69.00;;;;;;5072474;28;20024;-57
2022/05/08 09:45:07;;;;;;;11.68;3.30;;;25.10;68.80;;;;;;5071352;28;20157;-57
2022/05/08 09:47:47;;;;;;;12.10;3.10;;;25.90;68.40;;;;;;5071994;28;20024;-58
2022/05/08 09:50:15;;;;;;;5.05;2.40;;;26.10;68.70;;;;;;5072471;28;20146;-58
2022/05/08 09:52:42;;;;;;;9.07;3.15;;;26.30;64.90;;;;;;5072801;28;20032;-58
2022/05/08 09:55:16;;;;;;;7.03;3.00;;;26.10;64.20;;;;;;5072505;28;20016;-57
2022/05/08 09:57:41;;;;;;;6.85;3.10;;;25.60;64.90;;;;;;5072014;28;20020;-58
2022/05/08 10:00:09;;;;;;;22.85;3.72;;;25.30;67.60;;;;;;5071725;28;20028;-57
2022/05/08 10:02:37;;;;;;;17.00;3.58;;;25.10;65.80;;;;;;5072420;28;20240;-57
2022/05/08 10:05:02;;;;;;;9.90;2.63;;;24.90;68.10;;;;;;5071996;28;20017;-58
2022/05/08 10:07:28;;;;;;;7.57;2.42;;;24.70;68.30;;;;;;5071921;28;20050;-57
2022/05/08 10:15:29;;;;;;;9.77;2.58;;;24.70;69.00;;;;;;5071826;28;20511;-58
2022/05/08 10:18:28;;;;;;;6.80;2.60;;;25.70;66.20;;;;;;5071667;28;20025;-58
2022/05/08 10:21:08;;;;;;;6.70;2.70;;;26.10;65.70;;;;;;5070432;28;20313;-58
2022/05/08 10:23:34;;;;;;;11.45;2.50;;;26.10;65.40;;;;;;5071712;28;20393;-57
2022/05/08 10:26:23;;;;;;;12.27;2.92;;;25.50;66.10;;;;;;5071470;28;20028;-57
2022/05/08 10:29:15;;;;;;;8.23;2.75;;;25.10;65.70;;;;;;5071393;28;20036;-57
2022/05/08 10:31:44;;;;;;;8.18;2.10;;;25.40;67.10;;;;;;5071248;28;20472;-57
2022/05/08 10:34:11;;;;;;;10.15;2.33;;;25.50;64.60;;;;;;5071283;28;20052;-57
2022/05/08 10:36:37;;;;;;;7.30;2.47;;;25.60;64.20;;;;;;5071312;28;20373;-57
2022/05/08 10:39:43;;;;;;;9.20;2.42;;;26.10;61.80;;;;;;5071547;28;20066;-57
2022/05/08 10:42:27;;;;;;;6.50;2.20;;;26.00;61.70;;;;;;5071472;28;20048;-58
2022/05/08 10:44:53;;;;;;;6.85;2.35;;;26.00;63.80;;;;;;5071116;28;20035;-57
2022/05/08 10:47:36;;;;;;;4.95;2.20;;;24.90;62.80;;;;;;5069963;28;20385;-57
2022/05/08 10:50:07;;;;;;;8.82;2.70;;;25.00;62.80;;;;;;5071066;28;20021;-57
2022/05/08 10:52:37;;;;;;;9.65;2.80;;;25.30;63.30;;;;;;5071294;28;20029;-57
2022/05/08 10:55:07;;;;;;;6.40;2.30;;;25.60;61.50;;;;;;5071077;28;20040;-57
2022/05/08 10:57:37;;;;;;;7.93;2.50;;;26.10;61.00;;;;;;5070832;28;20489;-57
2022/05/08 11:00:05;;;;;;;6.07;1.92;;;26.20;60.40;;;;;;5070759;28;20489;-57
2022/05/08 11:02:41;;;;;;;5.40;1.80;;;26.80;58.20;;;;;;5071515;28;20570;-57
2022/05/08 11:05:12;;;;;;;8.18;2.17;;;27.00;57.60;;;;;;5071333;28;20029;-57
2022/05/08 11:07:39;;;;;;;4.78;2.30;;;27.30;57.10;;;;;;5071664;28;20020;-57
2022/05/08 11:10:25;;;;;;;8.00;2.47;;;26.50;56.30;;;;;;5070934;28;20052;-58
2022/05/08 11:13:01;;;;;;;8.02;2.30;;;26.20;56.50;;;;;;5069782;28;20490;-57
2022/05/08 11:15:30;;;;;;;7.10;2.28;;;26.10;57.50;;;;;;5070659;28;20021;-58
2022/05/08 11:18:07;;;;;;;7.45;2.13;;;26.60;56.70;;;;;;5070899;28;20511;-57
2022/05/08 11:20:38;;;;;;;6.60;2.30;;;26.60;56.70;;;;;;5070812;28;20101;-58
2022/05/08 11:23:06;;;;;;;7.53;2.03;;;27.30;55.30;;;;;;5070109;28;20021;-58
2022/05/08 11:25:33;;;;;;;8.52;2.45;;;27.70;54.20;;;;;;5070557;28;20035;-58
2022/05/08 11:27:59;;;;;;;9.02;2.45;;;27.80;53.90;;;;;;5070351;28;20082;-57
2022/05/08 11:30:37;;;;;;;6.70;2.50;;;27.70;54.10;;;;;;5069104;28;20083;-57
2022/05/08 11:36:04;;;;;;;6.18;1.80;;;28.10;54.60;;;;;;5070044;28;20052;-57
2022/05/08 11:38:44;;;;;;;5.68;1.83;;;27.80;52.70;;;;;;5070376;28;20020;-57
2022/05/08 11:41:13;;;;;;;5.63;1.90;;;27.60;52.10;;;;;;5070723;28;20050;-57
2022/05/08 11:43:50;;;;;;;5.32;2.00;;;26.80;53.90;;;;;;5070040;28;20116;-57
2022/05/08 11:46:18;;;;;;;8.68;2.38;;;27.20;53.80;;;;;;5070130;28;20032;-57
2022/05/08 11:48:46;;;;;;;7.35;2.20;;;27.80;53.80;;;;;;5070083;28;20482;-56
2022/05/08 11:51:20;;;;;;;9.30;2.03;;;28.00;53.00;;;;;;5070889;28;20421;-57
2022/05/08 11:53:51;;;;;;;8.15;1.95;;;27.80;52.70;;;;;;5070563;28;20036;-57
2022/05/08 11:56:34;;;;;;;4.95;1.65;;;27.90;52.00;;;;;;5069944;28;20024;-57
2022/05/08 11:59:01;;;;;;;4.10;1.88;;;27.20;52.70;;;;;;5070399;28;20032;-57
2022/05/08 12:01:31;;;;;;;5.07;1.63;;;27.60;52.90;;;;;;5070028;28;20020;-57
2022/05/08 12:04:16;;;;;;;6.35;1.73;;;28.00;51.50;;;;;;5070015;28;20054;-58
2022/05/08 12:07:05;;;;;;;7.82;1.73;;;28.50;51.60;;;;;;5070449;28;20024;-57
2022/05/08 12:09:33;;;;;;;6.40;1.50;;;28.40;51.50;;;;;;5070052;28;20059;-57
2022/05/08 12:12:25;;;;;;;7.88;1.85;;;28.10;51.50;;;;;;5070610;28;20035;-57
2022/05/08 12:14:55;;;;;;;;;;;27.70;51.70;;;;;;5070614;28;20029;-57
2022/05/08 12:17:21;;;;;;;6.57;1.70;;;27.30;52.70;;;;;;5069781;28;19908;-57
2022/05/08 12:19:53;;;;;;;5.63;1.60;;;27.30;53.20;;;;;;5069990;28;20070;-57
2022/05/08 12:22:26;;;;;;;5.90;1.93;;;28.00;53.00;;;;;;5069967;28;20424;-57
2022/05/08 12:24:58;;;;;;;6.50;1.63;;;27.20;52.80;;;;;;5070001;28;20743;-57
2022/05/08 12:27:23;;;;;;;8.40;1.80;;;26.90;52.30;;;;;;5070227;28;20028;-57
2022/05/08 12:29:50;;;;;;;4.30;1.25;;;28.20;52.10;;;;;;5070163;28;20054;-57
2022/05/08 12:32:17;;;;;;;3.80;1.25;;;28.80;50.90;;;;;;5069982;28;20036;-57
2022/05/08 12:34:43;;;;;;;4.82;1.40;;;29.10;50.20;;;;;;5072623;28;20140;-57
2022/05/08 12:37:11;;;;;;;4.22;1.60;;;29.60;50.50;;;;;;5073855;28;20024;-57
2022/05/08 12:39:38;;;;;;;4.22;1.63;;;28.90;49.60;;;;;;5073728;28;20025;-57
2022/05/08 12:42:04;;;;;;;4.47;1.40;;;27.80;50.50;;;;;;5072608;28;20571;-57
2022/05/08 12:44:30;;;;;;;4.97;1.27;;;27.40;52.20;;;;;;5073326;28;20104;-57
2022/05/08 12:46:57;;;;;;;3.35;1.20;;;27.90;50.90;;;;;;5073596;28;20062;-57
2022/05/08 12:49:22;;;;;;;6.53;1.65;;;28.00;50.60;;;;;;5072147;28;20028;-58
2022/05/08 12:51:48;;;;;;;7.07;1.40;;;28.30;51.10;;;;;;5073990;28;20032;-57
2022/05/08 12:54:14;;;;;;;6.70;1.85;;;28.30;51.00;;;;;;5073481;28;20103;-57
2022/05/08 12:56:40;;;;;;;7.47;1.80;;;28.60;51.30;;;;;;5073341;28;20388;-57
2022/05/08 13:01:50;;;;;;;4.90;1.63;;;27.50;52.30;;;;;;5074002;28;20031;-57
2022/05/08 13:04:16;;;;;;;6.05;1.90;;;27.90;51.60;;;;;;5073607;28;20054;-57
2022/05/08 13:06:41;;;;;;;8.98;1.75;;;28.50;51.10;;;;;;5073886;28;20032;-57
2022/05/08 13:09:08;;;;;;;5.75;1.70;;;28.40;51.00;;;;;;5073735;28;20511;-57
2022/05/08 13:11:35;;;;;;;6.63;1.80;;;29.00;50.90;;;;;;5073820;28;20417;-56
2022/05/08 13:14:02;;;;;;;5.47;1.60;;;28.00;51.10;;;;;;5073581;28;20038;-56